sensor_id;sensor_type;location;lat;lon;timestamp;P1;durP1;ratioP1;P2;durP2;ratioP2
43883;SDS011;71973;52.018;5.810;2024-02-26T00:00:30;2.50;;;1.30;;
43883;SDS011;71973;52.018;5.810;2024-02-26T00:02:56;3.63;;;1.70;;
43883;SDS011;71973;52.018;5.810;2024-02-26T00:05:21;2.25;;;1.23;;
43883;SDS011;71973;52.018;5.810;2024-02-26T00:07:47;2.30;;;1.30;;
43883;SDS011;71973;52.018;5.810;2024-02-26T00:10:13;2.22;;;1.10;;
43883;SDS011;71973;52.018;5.810;2024-02-26T00:12:39;3.08;;;1.13;;
43883;SDS011;71973;52.018;5.810;2024-02-26T00:15:08;2.60;;;1.42;;
43883;SDS011;71973;52.018;5.810;2024-02-26T00:17:35;2.15;;;1.20;;
43883;SDS011;71973;52.018;5.810;2024-02-26T00:20:04;3.20;;;1.48;;
43883;SDS011;71973;52.018;5.810;2024-02-26T00:22:33;1.70;;;1.20;;
43883;SDS011;71973;52.018;5.810;2024-02-26T00:24:59;3.70;;;1.17;;
43883;SDS011;71973;52.018;5.810;2024-02-26T00:27:24;4.53;;;1.10;;
43883;SDS011;71973;52.018;5.810;2024-02-26T00:29:50;1.87;;;1.30;;
43883;SDS011;71973;52.018;5.810;2024-02-26T00:32:16;4.43;;;1.43;;
43883;SDS011;71973;52.018;5.810;2024-02-26T00:34:41;3.97;;;1.30;;
43883;SDS011;71973;52.018;5.810;2024-02-26T00:37:07;4.43;;;1.40;;
43883;SDS011;71973;52.018;5.810;2024-02-26T00:39:32;2.33;;;1.10;;
43883;SDS011;71973;52.018;5.810;2024-02-26T00:41:58;4.60;;;1.17;;
43883;SDS011;71973;52.018;5.810;2024-02-26T00:44:23;3.57;;;1.30;;
43883;SDS011;71973;52.018;5.810;2024-02-26T00:46:49;2.70;;;1.30;;
43883;SDS011;71973;52.018;5.810;2024-02-26T00:49:14;1.87;;;1.10;;
43883;SDS011;71973;52.018;5.810;2024-02-26T00:51:40;2.30;;;1.20;;
43883;SDS011;71973;52.018;5.810;2024-02-26T00:54:05;4.77;;;1.40;;
43883;SDS011;71973;52.018;5.810;2024-02-26T00:56:31;4.40;;;1.43;;
43883;SDS011;71973;52.018;5.810;2024-02-26T00:58:57;1.03;;;0.83;;
43883;SDS011;71973;52.018;5.810;2024-02-26T01:01:23;2.05;;;1.45;;
43883;SDS011;71973;52.018;5.810;2024-02-26T01:03:49;3.40;;;1.70;;
43883;SDS011;71973;52.018;5.810;2024-02-26T01:06:14;1.70;;;1.10;;
43883;SDS011;71973;52.018;5.810;2024-02-26T01:08:40;2.20;;;1.30;;
43883;SDS011;71973;52.018;5.810;2024-02-26T01:11:05;1.53;;;1.10;;
43883;SDS011;71973;52.018;5.810;2024-02-26T01:13:31;2.53;;;1.30;;
43883;SDS011;71973;52.018;5.810;2024-02-26T01:15:57;1.93;;;1.50;;
43883;SDS011;71973;52.018;5.810;2024-02-26T01:18:22;2.17;;;1.27;;
43883;SDS011;71973;52.018;5.810;2024-02-26T01:20:48;1.70;;;1.07;;
43883;SDS011;71973;52.018;5.810;2024-02-26T01:23:14;1.33;;;1.00;;
43883;SDS011;71973;52.018;5.810;2024-02-26T01:25:39;2.73;;;1.30;;
43883;SDS011;71973;52.018;5.810;2024-02-26T01:28:05;2.43;;;1.30;;
43883;SDS011;71973;52.018;5.810;2024-02-26T01:30:31;3.03;;;1.55;;
43883;SDS011;71973;52.018;5.810;2024-02-26T01:32:56;2.70;;;1.25;;
43883;SDS011;71973;52.018;5.810;2024-02-26T01:35:22;2.03;;;1.40;;
43883;SDS011;71973;52.018;5.810;2024-02-26T01:37:48;1.20;;;1.03;;
43883;SDS011;71973;52.018;5.810;2024-02-26T01:40:13;1.53;;;1.00;;
43883;SDS011;71973;52.018;5.810;2024-02-26T01:42:43;1.65;;;1.10;;
43883;SDS011;71973;52.018;5.810;2024-02-26T01:45:13;2.28;;;1.40;;
43883;SDS011;71973;52.018;5.810;2024-02-26T01:47:45;1.88;;;1.30;;
43883;SDS011;71973;52.018;5.810;2024-02-26T01:50:11;1.95;;;1.15;;
43883;SDS011;71973;52.018;5.810;2024-02-26T01:52:37;3.20;;;1.20;;
43883;SDS011;71973;52.018;5.810;2024-02-26T01:55:03;1.90;;;1.20;;
43883;SDS011;71973;52.018;5.810;2024-02-26T01:57:28;1.15;;;1.05;;
43883;SDS011;71973;52.018;5.810;2024-02-26T01:59:54;1.77;;;1.17;;
43883;SDS011;71973;52.018;5.810;2024-02-26T02:02:20;1.92;;;1.40;;
43883;SDS011;71973;52.018;5.810;2024-02-26T02:04:46;2.20;;;1.40;;
43883;SDS011;71973;52.018;5.810;2024-02-26T02:07:11;1.37;;;1.10;;
43883;SDS011;71973;52.018;5.810;2024-02-26T02:09:37;2.78;;;0.90;;
43883;SDS011;71973;52.018;5.810;2024-02-26T02:12:03;1.67;;;1.30;;
43883;SDS011;71973;52.018;5.810;2024-02-26T02:14:31;1.00;;;0.90;;
43883;SDS011;71973;52.018;5.810;2024-02-26T02:16:56;2.13;;;1.10;;
43883;SDS011;71973;52.018;5.810;2024-02-26T02:19:22;3.33;;;1.20;;
43883;SDS011;71973;52.018;5.810;2024-02-26T02:21:47;1.93;;;1.00;;
43883;SDS011;71973;52.018;5.810;2024-02-26T02:24:13;1.30;;;1.00;;
43883;SDS011;71973;52.018;5.810;2024-02-26T02:26:39;1.17;;;0.90;;
43883;SDS011;71973;52.018;5.810;2024-02-26T02:29:05;2.78;;;1.20;;
43883;SDS011;71973;52.018;5.810;2024-02-26T02:31:31;1.40;;;1.10;;
43883;SDS011;71973;52.018;5.810;2024-02-26T02:33:57;2.20;;;1.00;;
43883;SDS011;71973;52.018;5.810;2024-02-26T02:36:23;1.95;;;1.15;;
43883;SDS011;71973;52.018;5.810;2024-02-26T02:38:49;2.10;;;1.37;;
43883;SDS011;71973;52.018;5.810;2024-02-26T02:41:15;1.55;;;1.00;;
43883;SDS011;71973;52.018;5.810;2024-02-26T02:43:41;1.90;;;1.10;;
43883;SDS011;71973;52.018;5.810;2024-02-26T02:46:07;1.77;;;1.20;;
43883;SDS011;71973;52.018;5.810;2024-02-26T02:48:32;2.17;;;1.40;;
43883;SDS011;71973;52.018;5.810;2024-02-26T02:50:58;2.23;;;1.27;;
43883;SDS011;71973;52.018;5.810;2024-02-26T02:53:23;2.13;;;1.30;;
43883;SDS011;71973;52.018;5.810;2024-02-26T02:55:49;1.47;;;1.10;;
43883;SDS011;71973;52.018;5.810;2024-02-26T02:58:15;1.47;;;1.10;;
43883;SDS011;71973;52.018;5.810;2024-02-26T03:00:40;2.53;;;1.50;;
43883;SDS011;71973;52.018;5.810;2024-02-26T03:03:06;2.40;;;1.37;;
43883;SDS011;71973;52.018;5.810;2024-02-26T03:05:31;1.93;;;1.00;;
43883;SDS011;71973;52.018;5.810;2024-02-26T03:07:57;1.93;;;1.20;;
43883;SDS011;71973;52.018;5.810;2024-02-26T03:10:23;2.07;;;1.17;;
43883;SDS011;71973;52.018;5.810;2024-02-26T03:12:49;1.37;;;1.13;;
43883;SDS011;71973;52.018;5.810;2024-02-26T03:15:15;1.25;;;1.10;;
43883;SDS011;71973;52.018;5.810;2024-02-26T03:17:41;1.67;;;1.20;;
43883;SDS011;71973;52.018;5.810;2024-02-26T03:20:07;1.52;;;1.30;;
43883;SDS011;71973;52.018;5.810;2024-02-26T03:22:34;1.85;;;1.23;;
43883;SDS011;71973;52.018;5.810;2024-02-26T03:25:00;1.98;;;1.10;;
43883;SDS011;71973;52.018;5.810;2024-02-26T03:27:26;1.95;;;1.20;;
43883;SDS011;71973;52.018;5.810;2024-02-26T03:29:52;1.53;;;1.20;;
43883;SDS011;71973;52.018;5.810;2024-02-26T03:32:18;1.53;;;1.10;;
43883;SDS011;71973;52.018;5.810;2024-02-26T03:34:43;3.00;;;1.20;;
43883;SDS011;71973;52.018;5.810;2024-02-26T03:37:09;3.17;;;1.47;;
43883;SDS011;71973;52.018;5.810;2024-02-26T03:42:01;1.92;;;1.17;;
43883;SDS011;71973;52.018;5.810;2024-02-26T03:44:27;2.07;;;1.27;;
43883;SDS011;71973;52.018;5.810;2024-02-26T03:46:52;2.07;;;1.10;;
43883;SDS011;71973;52.018;5.810;2024-02-26T03:49:18;2.00;;;1.20;;
43883;SDS011;71973;52.018;5.810;2024-02-26T03:51:44;2.23;;;1.10;;
43883;SDS011;71973;52.018;5.810;2024-02-26T03:54:09;1.23;;;0.90;;
43883;SDS011;71973;52.018;5.810;2024-02-26T03:56:35;2.00;;;1.20;;
43883;SDS011;71973;52.018;5.810;2024-02-26T03:59:01;4.07;;;1.20;;
43883;SDS011;71973;52.018;5.810;2024-02-26T04:01:27;1.50;;;0.93;;
43883;SDS011;71973;52.018;5.810;2024-02-26T04:03:53;1.45;;;0.95;;
43883;SDS011;71973;52.018;5.810;2024-02-26T04:06:19;1.83;;;1.25;;
43883;SDS011;71973;52.018;5.810;2024-02-26T04:08:46;2.63;;;1.20;;
43883;SDS011;71973;52.018;5.810;2024-02-26T04:11:12;2.17;;;1.25;;
43883;SDS011;71973;52.018;5.810;2024-02-26T04:13:38;2.03;;;1.27;;
43883;SDS011;71973;52.018;5.810;2024-02-26T04:16:05;1.83;;;1.10;;
43883;SDS011;71973;52.018;5.810;2024-02-26T04:18:31;3.03;;;1.15;;
43883;SDS011;71973;52.018;5.810;2024-02-26T04:20:58;1.60;;;1.27;;
43883;SDS011;71973;52.018;5.810;2024-02-26T04:23:24;1.95;;;1.40;;
43883;SDS011;71973;52.018;5.810;2024-02-26T04:25:50;2.13;;;1.33;;
43883;SDS011;71973;52.018;5.810;2024-02-26T04:28:15;1.27;;;0.93;;
43883;SDS011;71973;52.018;5.810;2024-02-26T04:30:41;1.60;;;1.10;;
43883;SDS011;71973;52.018;5.810;2024-02-26T04:33:07;2.20;;;1.40;;
43883;SDS011;71973;52.018;5.810;2024-02-26T04:35:32;1.40;;;1.07;;
43883;SDS011;71973;52.018;5.810;2024-02-26T04:38:00;1.67;;;1.17;;
43883;SDS011;71973;52.018;5.810;2024-02-26T04:40:25;1.73;;;1.00;;
43883;SDS011;71973;52.018;5.810;2024-02-26T04:42:51;1.30;;;1.00;;
43883;SDS011;71973;52.018;5.810;2024-02-26T04:45:17;2.47;;;1.30;;
43883;SDS011;71973;52.018;5.810;2024-02-26T04:47:42;1.70;;;1.10;;
43883;SDS011;71973;52.018;5.810;2024-02-26T04:50:08;2.00;;;1.17;;
43883;SDS011;71973;52.018;5.810;2024-02-26T04:52:34;1.73;;;0.83;;
43883;SDS011;71973;52.018;5.810;2024-02-26T04:54:59;1.70;;;1.10;;
43883;SDS011;71973;52.018;5.810;2024-02-26T04:57:25;1.50;;;1.20;;
43883;SDS011;71973;52.018;5.810;2024-02-26T04:59:51;1.45;;;1.17;;
43883;SDS011;71973;52.018;5.810;2024-02-26T05:02:16;1.90;;;1.10;;
43883;SDS011;71973;52.018;5.810;2024-02-26T05:04:42;2.17;;;1.15;;
43883;SDS011;71973;52.018;5.810;2024-02-26T05:07:08;1.58;;;1.20;;
43883;SDS011;71973;52.018;5.810;2024-02-26T05:09:34;1.33;;;1.10;;
43883;SDS011;71973;52.018;5.810;2024-02-26T05:12:00;1.75;;;1.25;;
43883;SDS011;71973;52.018;5.810;2024-02-26T05:14:25;1.60;;;1.10;;
43883;SDS011;71973;52.018;5.810;2024-02-26T05:16:51;1.50;;;1.00;;
43883;SDS011;71973;52.018;5.810;2024-02-26T05:19:17;1.73;;;1.20;;
43883;SDS011;71973;52.018;5.810;2024-02-26T05:21:42;1.27;;;1.07;;
43883;SDS011;71973;52.018;5.810;2024-02-26T05:26:35;1.77;;;1.30;;
43883;SDS011;71973;52.018;5.810;2024-02-26T05:29:00;1.23;;;1.10;;
43883;SDS011;71973;52.018;5.810;2024-02-26T05:31:26;1.50;;;1.10;;
43883;SDS011;71973;52.018;5.810;2024-02-26T05:33:52;1.47;;;1.20;;
43883;SDS011;71973;52.018;5.810;2024-02-26T05:36:19;1.88;;;1.20;;
43883;SDS011;71973;52.018;5.810;2024-02-26T05:38:47;1.65;;;1.02;;
43883;SDS011;71973;52.018;5.810;2024-02-26T05:41:16;1.63;;;1.10;;
43883;SDS011;71973;52.018;5.810;2024-02-26T05:43:45;1.50;;;1.02;;
43883;SDS011;71973;52.018;5.810;2024-02-26T05:46:10;2.30;;;1.17;;
43883;SDS011;71973;52.018;5.810;2024-02-26T05:48:36;1.93;;;1.33;;
43883;SDS011;71973;52.018;5.810;2024-02-26T05:51:02;1.67;;;1.30;;
43883;SDS011;71973;52.018;5.810;2024-02-26T05:53:28;2.38;;;1.20;;
43883;SDS011;71973;52.018;5.810;2024-02-26T05:55:53;1.33;;;0.90;;
43883;SDS011;71973;52.018;5.810;2024-02-26T05:58:19;1.33;;;0.90;;
43883;SDS011;71973;52.018;5.810;2024-02-26T06:00:44;1.63;;;1.10;;
43883;SDS011;71973;52.018;5.810;2024-02-26T06:03:10;1.40;;;1.20;;
43883;SDS011;71973;52.018;5.810;2024-02-26T06:05:35;1.10;;;0.80;;
43883;SDS011;71973;52.018;5.810;2024-02-26T06:08:01;1.00;;;0.90;;
43883;SDS011;71973;52.018;5.810;2024-02-26T06:10:27;1.35;;;1.17;;
43883;SDS011;71973;52.018;5.810;2024-02-26T06:12:53;1.80;;;1.00;;
43883;SDS011;71973;52.018;5.810;2024-02-26T06:15:18;1.30;;;1.20;;
43883;SDS011;71973;52.018;5.810;2024-02-26T06:17:44;0.87;;;0.87;;
43883;SDS011;71973;52.018;5.810;2024-02-26T06:20:10;1.50;;;0.93;;
43883;SDS011;71973;52.018;5.810;2024-02-26T06:22:38;2.05;;;1.42;;
43883;SDS011;71973;52.018;5.810;2024-02-26T06:25:07;1.45;;;1.17;;
43883;SDS011;71973;52.018;5.810;2024-02-26T06:27:42;2.22;;;1.00;;
43883;SDS011;71973;52.018;5.810;2024-02-26T06:30:07;1.73;;;1.20;;
43883;SDS011;71973;52.018;5.810;2024-02-26T06:32:35;1.75;;;1.20;;
43883;SDS011;71973;52.018;5.810;2024-02-26T06:35:03;1.33;;;1.10;;
43883;SDS011;71973;52.018;5.810;2024-02-26T06:37:34;0.90;;;0.90;;
43883;SDS011;71973;52.018;5.810;2024-02-26T06:40:00;0.80;;;0.80;;
43883;SDS011;71973;52.018;5.810;2024-02-26T06:42:28;1.30;;;1.00;;
43883;SDS011;71973;52.018;5.810;2024-02-26T06:44:55;1.25;;;1.00;;
43883;SDS011;71973;52.018;5.810;2024-02-26T06:47:21;0.87;;;0.80;;
43883;SDS011;71973;52.018;5.810;2024-02-26T06:49:46;2.13;;;1.20;;
43883;SDS011;71973;52.018;5.810;2024-02-26T06:52:12;1.60;;;1.00;;
43883;SDS011;71973;52.018;5.810;2024-02-26T06:54:37;1.20;;;1.00;;
43883;SDS011;71973;52.018;5.810;2024-02-26T06:57:03;2.20;;;1.30;;
43883;SDS011;71973;52.018;5.810;2024-02-26T06:59:29;1.30;;;1.20;;
43883;SDS011;71973;52.018;5.810;2024-02-26T07:01:54;1.33;;;1.13;;
43883;SDS011;71973;52.018;5.810;2024-02-26T07:04:20;1.57;;;1.00;;
43883;SDS011;71973;52.018;5.810;2024-02-26T07:06:45;1.70;;;1.07;;
43883;SDS011;71973;52.018;5.810;2024-02-26T07:09:12;1.48;;;1.00;;
43883;SDS011;71973;52.018;5.810;2024-02-26T07:11:38;1.33;;;1.10;;
43883;SDS011;71973;52.018;5.810;2024-02-26T07:14:06;1.48;;;1.00;;
43883;SDS011;71973;52.018;5.810;2024-02-26T07:16:33;1.35;;;1.13;;
43883;SDS011;71973;52.018;5.810;2024-02-26T07:18:59;2.13;;;1.03;;
43883;SDS011;71973;52.018;5.810;2024-02-26T07:21:24;1.77;;;1.30;;
43883;SDS011;71973;52.018;5.810;2024-02-26T07:23:50;0.97;;;0.80;;
43883;SDS011;71973;52.018;5.810;2024-02-26T07:26:15;1.40;;;1.10;;
43883;SDS011;71973;52.018;5.810;2024-02-26T07:28:43;1.92;;;1.10;;
43883;SDS011;71973;52.018;5.810;2024-02-26T07:31:09;3.40;;;1.07;;
43883;SDS011;71973;52.018;5.810;2024-02-26T07:33:34;1.17;;;1.03;;
43883;SDS011;71973;52.018;5.810;2024-02-26T07:36:00;1.77;;;1.10;;
43883;SDS011;71973;52.018;5.810;2024-02-26T07:38:25;1.20;;;1.10;;
43883;SDS011;71973;52.018;5.810;2024-02-26T07:40:51;1.43;;;1.23;;
43883;SDS011;71973;52.018;5.810;2024-02-26T07:43:16;4.27;;;1.40;;
43883;SDS011;71973;52.018;5.810;2024-02-26T07:45:42;2.07;;;1.00;;
43883;SDS011;71973;52.018;5.810;2024-02-26T07:48:07;2.73;;;1.53;;
43883;SDS011;71973;52.018;5.810;2024-02-26T07:50:33;2.03;;;1.20;;
43883;SDS011;71973;52.018;5.810;2024-02-26T07:52:59;1.27;;;1.13;;
43883;SDS011;71973;52.018;5.810;2024-02-26T07:55:24;2.53;;;1.20;;
43883;SDS011;71973;52.018;5.810;2024-02-26T07:57:50;2.93;;;1.30;;
43883;SDS011;71973;52.018;5.810;2024-02-26T08:00:15;2.30;;;1.37;;
43883;SDS011;71973;52.018;5.810;2024-02-26T08:02:42;2.50;;;1.40;;
43883;SDS011;71973;52.018;5.810;2024-02-26T08:05:09;2.85;;;1.13;;
43883;SDS011;71973;52.018;5.810;2024-02-26T08:07:34;1.50;;;1.40;;
43883;SDS011;71973;52.018;5.810;2024-02-26T08:10:00;1.50;;;1.20;;
43883;SDS011;71973;52.018;5.810;2024-02-26T08:12:25;3.03;;;1.50;;
43883;SDS011;71973;52.018;5.810;2024-02-26T08:14:51;1.90;;;1.10;;
43883;SDS011;71973;52.018;5.810;2024-02-26T08:17:17;1.97;;;1.73;;
43883;SDS011;71973;52.018;5.810;2024-02-26T08:19:42;2.90;;;1.40;;
43883;SDS011;71973;52.018;5.810;2024-02-26T08:22:08;1.43;;;1.30;;
43883;SDS011;71973;52.018;5.810;2024-02-26T08:24:35;1.70;;;1.33;;
43883;SDS011;71973;52.018;5.810;2024-02-26T08:27:00;3.03;;;1.30;;
43883;SDS011;71973;52.018;5.810;2024-02-26T08:29:26;1.90;;;1.13;;
43883;SDS011;71973;52.018;5.810;2024-02-26T08:31:52;1.70;;;1.30;;
43883;SDS011;71973;52.018;5.810;2024-02-26T08:34:17;2.63;;;1.63;;
43883;SDS011;71973;52.018;5.810;2024-02-26T08:36:43;2.77;;;1.50;;
43883;SDS011;71973;52.018;5.810;2024-02-26T08:39:09;3.08;;;1.65;;
43883;SDS011;71973;52.018;5.810;2024-02-26T08:41:35;2.53;;;1.63;;
43883;SDS011;71973;52.018;5.810;2024-02-26T08:44:01;1.77;;;1.20;;
43883;SDS011;71973;52.018;5.810;2024-02-26T08:46:26;1.47;;;1.30;;
43883;SDS011;71973;52.018;5.810;2024-02-26T08:48:52;1.60;;;1.17;;
43883;SDS011;71973;52.018;5.810;2024-02-26T08:51:17;1.33;;;1.23;;
43883;SDS011;71973;52.018;5.810;2024-02-26T08:53:43;1.83;;;1.20;;
43883;SDS011;71973;52.018;5.810;2024-02-26T08:56:09;1.70;;;1.30;;
43883;SDS011;71973;52.018;5.810;2024-02-26T08:58:36;2.92;;;1.40;;
43883;SDS011;71973;52.018;5.810;2024-02-26T09:01:01;2.33;;;1.50;;
43883;SDS011;71973;52.018;5.810;2024-02-26T09:03:27;2.03;;;1.33;;
43883;SDS011;71973;52.018;5.810;2024-02-26T09:05:53;2.20;;;1.50;;
43883;SDS011;71973;52.018;5.810;2024-02-26T09:08:18;1.97;;;1.30;;
43883;SDS011;71973;52.018;5.810;2024-02-26T09:10:44;1.90;;;1.20;;
43883;SDS011;71973;52.018;5.810;2024-02-26T09:13:09;2.23;;;1.53;;
43883;SDS011;71973;52.018;5.810;2024-02-26T09:15:35;1.43;;;1.13;;
43883;SDS011;71973;52.018;5.810;2024-02-26T09:18:01;1.67;;;1.40;;
43883;SDS011;71973;52.018;5.810;2024-02-26T09:20:28;2.05;;;1.65;;
43883;SDS011;71973;52.018;5.810;2024-02-26T09:22:53;1.50;;;1.30;;
43883;SDS011;71973;52.018;5.810;2024-02-26T09:25:19;2.20;;;1.60;;
43883;SDS011;71973;52.018;5.810;2024-02-26T09:27:45;2.10;;;1.27;;
43883;SDS011;71973;52.018;5.810;2024-02-26T09:30:11;3.20;;;1.95;;
43883;SDS011;71973;52.018;5.810;2024-02-26T09:32:37;2.42;;;1.38;;
43883;SDS011;71973;52.018;5.810;2024-02-26T09:35:04;2.10;;;1.70;;
43883;SDS011;71973;52.018;5.810;2024-02-26T09:37:30;2.08;;;1.23;;
43883;SDS011;71973;52.018;5.810;2024-02-26T09:39:56;1.90;;;1.40;;
43883;SDS011;71973;52.018;5.810;2024-02-26T09:42:21;1.77;;;1.30;;
43883;SDS011;71973;52.018;5.810;2024-02-26T09:44:51;1.83;;;1.40;;
43883;SDS011;71973;52.018;5.810;2024-02-26T09:47:19;1.67;;;1.30;;
43883;SDS011;71973;52.018;5.810;2024-02-26T09:49:46;2.25;;;1.50;;
43883;SDS011;71973;52.018;5.810;2024-02-26T09:52:13;1.63;;;1.20;;
43883;SDS011;71973;52.018;5.810;2024-02-26T09:54:40;2.10;;;1.20;;
43883;SDS011;71973;52.018;5.810;2024-02-26T09:59:39;3.25;;;1.35;;
43883;SDS011;71973;52.018;5.810;2024-02-26T10:04:36;3.55;;;1.30;;
43883;SDS011;71973;52.018;5.810;2024-02-26T10:07:01;2.30;;;1.10;;
43883;SDS011;71973;52.018;5.810;2024-02-26T10:09:29;2.28;;;1.42;;
43883;SDS011;71973;52.018;5.810;2024-02-26T10:11:55;3.08;;;1.17;;
43883;SDS011;71973;52.018;5.810;2024-02-26T10:14:21;1.15;;;0.98;;
43883;SDS011;71973;52.018;5.810;2024-02-26T10:16:48;1.98;;;1.27;;
43883;SDS011;71973;52.018;5.810;2024-02-26T10:19:24;2.20;;;1.00;;
43883;SDS011;71973;52.018;5.810;2024-02-26T10:21:54;1.48;;;1.20;;
43883;SDS011;71973;52.018;5.810;2024-02-26T10:24:25;1.85;;;1.38;;
43883;SDS011;71973;52.018;5.810;2024-02-26T10:26:52;1.25;;;1.00;;
43883;SDS011;71973;52.018;5.810;2024-02-26T10:29:19;2.42;;;0.95;;
43883;SDS011;71973;52.018;5.810;2024-02-26T10:31:45;1.27;;;1.02;;
43883;SDS011;71973;52.018;5.810;2024-02-26T10:34:11;1.50;;;0.90;;
43883;SDS011;71973;52.018;5.810;2024-02-26T10:36:36;1.33;;;1.03;;
43883;SDS011;71973;52.018;5.810;2024-02-26T10:39:03;1.23;;;0.90;;
43883;SDS011;71973;52.018;5.810;2024-02-26T10:41:30;1.63;;;0.90;;
43883;SDS011;71973;52.018;5.810;2024-02-26T10:43:57;1.45;;;0.90;;
43883;SDS011;71973;52.018;5.810;2024-02-26T10:46:23;1.27;;;0.90;;
43883;SDS011;71973;52.018;5.810;2024-02-26T10:48:50;1.45;;;0.82;;
43883;SDS011;71973;52.018;5.810;2024-02-26T10:51:16;1.10;;;0.90;;
43883;SDS011;71973;52.018;5.810;2024-02-26T10:53:45;1.50;;;1.10;;
43883;SDS011;71973;52.018;5.810;2024-02-26T10:56:14;1.05;;;0.75;;
43883;SDS011;71973;52.018;5.810;2024-02-26T10:58:43;1.60;;;0.93;;
43883;SDS011;71973;52.018;5.810;2024-02-26T11:01:12;0.82;;;0.82;;
43883;SDS011;71973;52.018;5.810;2024-02-26T11:03:37;1.08;;;0.98;;
43883;SDS011;71973;52.018;5.810;2024-02-26T11:06:04;2.33;;;1.02;;
43883;SDS011;71973;52.018;5.810;2024-02-26T11:08:30;1.17;;;0.82;;
43883;SDS011;71973;52.018;5.810;2024-02-26T11:13:23;1.02;;;0.80;;
43883;SDS011;71973;52.018;5.810;2024-02-26T11:15:54;1.35;;;1.00;;
43883;SDS011;71973;52.018;5.810;2024-02-26T11:18:22;0.93;;;0.55;;
43883;SDS011;71973;52.018;5.810;2024-02-26T11:20:51;2.35;;;0.90;;
43883;SDS011;71973;52.018;5.810;2024-02-26T11:23:21;1.33;;;0.88;;
43883;SDS011;71973;52.018;5.810;2024-02-26T11:25:47;1.93;;;1.03;;
43883;SDS011;71973;52.018;5.810;2024-02-26T11:28:15;1.33;;;0.95;;
43883;SDS011;71973;52.018;5.810;2024-02-26T11:30:45;1.60;;;1.05;;
43883;SDS011;71973;52.018;5.810;2024-02-26T11:33:13;2.97;;;0.80;;
43883;SDS011;71973;52.018;5.810;2024-02-26T11:35:40;3.42;;;0.80;;
43883;SDS011;71973;52.018;5.810;2024-02-26T11:38:06;0.80;;;0.68;;
43883;SDS011;71973;52.018;5.810;2024-02-26T11:40:32;0.77;;;0.75;;
43883;SDS011;71973;52.018;5.810;2024-02-26T11:43:03;1.45;;;0.70;;
43883;SDS011;71973;52.018;5.810;2024-02-26T11:48:04;0.70;;;0.70;;
43883;SDS011;71973;52.018;5.810;2024-02-26T11:50:36;2.25;;;1.08;;
43883;SDS011;71973;52.018;5.810;2024-02-26T11:53:19;1.20;;;0.90;;
43883;SDS011;71973;52.018;5.810;2024-02-26T11:58:40;0.90;;;0.80;;
43883;SDS011;71973;52.018;5.810;2024-02-26T12:01:35;1.33;;;0.70;;
43883;SDS011;71973;52.018;5.810;2024-02-26T12:06:31;1.20;;;0.80;;
43883;SDS011;71973;52.018;5.810;2024-02-26T12:09:05;1.00;;;0.70;;
43883;SDS011;71973;52.018;5.810;2024-02-26T12:11:30;1.48;;;0.75;;
43883;SDS011;71973;52.018;5.810;2024-02-26T12:13:56;0.77;;;0.77;;
43883;SDS011;71973;52.018;5.810;2024-02-26T12:16:34;2.70;;;1.33;;
43883;SDS011;71973;52.018;5.810;2024-02-26T12:19:03;0.98;;;0.75;;
43883;SDS011;71973;52.018;5.810;2024-02-26T12:21:30;1.13;;;0.70;;
43883;SDS011;71973;52.018;5.810;2024-02-26T12:24:06;0.82;;;0.73;;
43883;SDS011;71973;52.018;5.810;2024-02-26T12:26:41;1.92;;;0.85;;
43883;SDS011;71973;52.018;5.810;2024-02-26T12:29:07;0.75;;;0.70;;
43883;SDS011;71973;52.018;5.810;2024-02-26T12:31:33;1.02;;;0.90;;
43883;SDS011;71973;52.018;5.810;2024-02-26T12:34:01;2.05;;;0.70;;
43883;SDS011;71973;52.018;5.810;2024-02-26T12:36:28;0.75;;;0.70;;
43883;SDS011;71973;52.018;5.810;2024-02-26T12:38:54;0.50;;;0.50;;
43883;SDS011;71973;52.018;5.810;2024-02-26T12:41:20;1.53;;;0.83;;
43883;SDS011;71973;52.018;5.810;2024-02-26T12:43:46;1.00;;;0.80;;
43883;SDS011;71973;52.018;5.810;2024-02-26T12:46:12;1.33;;;1.00;;
43883;SDS011;71973;52.018;5.810;2024-02-26T12:48:44;0.73;;;0.60;;
43883;SDS011;71973;52.018;5.810;2024-02-26T12:51:12;0.75;;;0.60;;
43883;SDS011;71973;52.018;5.810;2024-02-26T12:53:39;0.63;;;0.57;;
43883;SDS011;71973;52.018;5.810;2024-02-26T12:56:05;1.37;;;0.80;;
43883;SDS011;71973;52.018;5.810;2024-02-26T12:58:35;0.77;;;0.63;;
43883;SDS011;71973;52.018;5.810;2024-02-26T13:01:03;1.08;;;0.57;;
43883;SDS011;71973;52.018;5.810;2024-02-26T13:03:30;1.15;;;0.65;;
43883;SDS011;71973;52.018;5.810;2024-02-26T13:08:22;0.93;;;0.85;;
43883;SDS011;71973;52.018;5.810;2024-02-26T13:10:49;0.70;;;0.60;;
43883;SDS011;71973;52.018;5.810;2024-02-26T13:13:16;0.95;;;0.70;;
43883;SDS011;71973;52.018;5.810;2024-02-26T13:15:42;0.85;;;0.75;;
43883;SDS011;71973;52.018;5.810;2024-02-26T13:18:15;1.35;;;1.00;;
43883;SDS011;71973;52.018;5.810;2024-02-26T13:20:41;2.08;;;0.70;;
43883;SDS011;71973;52.018;5.810;2024-02-26T13:23:10;3.63;;;0.55;;
43883;SDS011;71973;52.018;5.810;2024-02-26T13:25:37;2.50;;;0.73;;
43883;SDS011;71973;52.018;5.810;2024-02-26T13:28:07;1.20;;;0.70;;
43883;SDS011;71973;52.018;5.810;2024-02-26T13:30:34;0.70;;;0.70;;
43883;SDS011;71973;52.018;5.810;2024-02-26T13:33:07;1.00;;;0.70;;
43883;SDS011;71973;52.018;5.810;2024-02-26T13:35:36;0.65;;;0.43;;
43883;SDS011;71973;52.018;5.810;2024-02-26T13:38:04;1.42;;;0.75;;
43883;SDS011;71973;52.018;5.810;2024-02-26T13:40:31;1.05;;;0.60;;
43883;SDS011;71973;52.018;5.810;2024-02-26T13:42:56;1.60;;;0.70;;
43883;SDS011;71973;52.018;5.810;2024-02-26T13:45:22;1.00;;;0.67;;
43883;SDS011;71973;52.018;5.810;2024-02-26T13:47:48;0.77;;;0.53;;
43883;SDS011;71973;52.018;5.810;2024-02-26T13:50:13;1.73;;;0.67;;
43883;SDS011;71973;52.018;5.810;2024-02-26T13:52:39;1.73;;;0.60;;
43883;SDS011;71973;52.018;5.810;2024-02-26T13:55:04;0.63;;;0.60;;
43883;SDS011;71973;52.018;5.810;2024-02-26T13:57:30;2.35;;;0.77;;
43883;SDS011;71973;52.018;5.810;2024-02-26T13:59:56;0.97;;;0.63;;
43883;SDS011;71973;52.018;5.810;2024-02-26T14:02:22;1.17;;;0.70;;
43883;SDS011;71973;52.018;5.810;2024-02-26T14:04:47;0.77;;;0.70;;
43883;SDS011;71973;52.018;5.810;2024-02-26T14:07:13;1.30;;;0.80;;
43883;SDS011;71973;52.018;5.810;2024-02-26T14:09:39;1.10;;;0.60;;
43883;SDS011;71973;52.018;5.810;2024-02-26T14:12:05;1.33;;;1.00;;
43883;SDS011;71973;52.018;5.810;2024-02-26T14:14:30;0.80;;;0.60;;
43883;SDS011;71973;52.018;5.810;2024-02-26T14:17:00;0.52;;;0.50;;
43883;SDS011;71973;52.018;5.810;2024-02-26T14:19:26;0.60;;;0.60;;
43883;SDS011;71973;52.018;5.810;2024-02-26T14:21:52;1.15;;;0.60;;
43883;SDS011;71973;52.018;5.810;2024-02-26T14:24:17;2.43;;;0.70;;
43883;SDS011;71973;52.018;5.810;2024-02-26T14:26:43;3.60;;;0.73;;
43883;SDS011;71973;52.018;5.810;2024-02-26T14:29:08;1.60;;;0.57;;
43883;SDS011;71973;52.018;5.810;2024-02-26T14:31:34;2.23;;;0.63;;
43883;SDS011;71973;52.018;5.810;2024-02-26T14:33:59;3.17;;;0.77;;
43883;SDS011;71973;52.018;5.810;2024-02-26T14:36:25;1.40;;;0.90;;
43883;SDS011;71973;52.018;5.810;2024-02-26T14:38:51;0.97;;;0.77;;
43883;SDS011;71973;52.018;5.810;2024-02-26T14:41:16;1.00;;;0.53;;
43883;SDS011;71973;52.018;5.810;2024-02-26T14:43:42;1.13;;;0.60;;
43883;SDS011;71973;52.018;5.810;2024-02-26T14:46:08;1.30;;;0.70;;
43883;SDS011;71973;52.018;5.810;2024-02-26T14:48:33;1.33;;;0.90;;
43883;SDS011;71973;52.018;5.810;2024-02-26T14:50:59;1.37;;;0.43;;
43883;SDS011;71973;52.018;5.810;2024-02-26T14:53:25;1.75;;;0.60;;
43883;SDS011;71973;52.018;5.810;2024-02-26T14:55:51;0.60;;;0.52;;
43883;SDS011;71973;52.018;5.810;2024-02-26T14:58:17;0.60;;;0.60;;
43883;SDS011;71973;52.018;5.810;2024-02-26T15:00:42;0.80;;;0.70;;
43883;SDS011;71973;52.018;5.810;2024-02-26T15:03:08;1.53;;;0.47;;
43883;SDS011;71973;52.018;5.810;2024-02-26T15:05:34;0.60;;;0.57;;